CYZT

Port Hardy Airport

Port Hardy, , Canada
METAR CYZT 161000Z 24004KT 200V260 15SM FEW042 OVC084 05/03 A3028 RMK SC2AC6 SLP255
Observed Flight Rules
Dec-16 @ 10:00 UTC (57 minutes ago) Visual Flight Rules
Wind Visibility Clouds
240° at 4 knots 15 miles
  • Few at 4,200' AGL
  • Overcast at 8,400' AGL
Temperatures Readings
Current 5°C / 41°F
Dewpoint 3°C / 37°F
Humidity 87%
Altimeter 30.28" Hg
Pressure 1025.5 hPa
Elevation 22
METAR CYZT 161000Z 24004KT 200V260 15SM FEW042 OVC084 05/03 A3028 RMK SC2AC6 SLP255
Observed Flight Rules
Dec-16 @ 10:00 UTC
(57 minutes ago)
VFR
Wind Visibility
240° at 4 knots 15 miles
Clouds
  • Few at 4,200' AGL
  • Overcast at 8,400' AGL
Temperature Dewpoint
5°C / 41°F 3°C / 37°F
Humidity Altimeter Pressure
87% 30.28" Hg 1025.5 hPa